Time;durP1;ratioP1;P1;durP2;ratioP2;P2;SDS_P1;SDS_P2;PMS_P1;PMS_P2;Temp;Humidity;BMP_temperature;BMP_pressure;BME280_temperature;BME280_humidity;BME280_pressure;Samples;Min_cycle;Max_cycle;Signal;HPM_P1;HPM_P2
2021/08/23 00:02:20;;;;;;;3.95;2.90;;;17.40;99.90;;;;;;5073183;28;20049;-75
2021/08/23 00:04:45;;;;;;;5.63;3.00;;;17.40;99.90;;;;;;5072570;28;20024;-75
2021/08/23 00:07:12;;;;;;;4.60;3.08;;;17.40;99.90;;;;;;5072694;28;20044;-76
2021/08/23 00:09:37;;;;;;;6.32;3.67;;;17.40;99.90;;;;;;5054761;28;20048;-75
2021/08/23 00:12:03;;;;;;;7.22;3.70;;;17.40;99.90;;;;;;5072881;28;20426;-76
2021/08/23 00:14:29;;;;;;;6.85;3.45;;;17.40;99.90;;;;;;5073819;28;20021;-78
2021/08/23 00:16:55;;;;;;;6.32;3.85;;;17.40;99.90;;;;;;5073640;28;20466;-76
2021/08/23 00:19:20;;;;;;;7.50;3.47;;;17.40;99.90;;;;;;5054750;28;20104;-77
2021/08/23 00:21:46;;;;;;;6.03;3.70;;;17.40;99.90;;;;;;5056655;28;20474;-75
2021/08/23 00:24:23;;;;;;;6.55;3.50;;;17.40;99.90;;;;;;5058634;28;20124;-77
2021/08/23 00:26:57;;;;;;;5.75;3.38;;;17.40;99.90;;;;;;5076310;28;20024;-76
2021/08/23 00:29:26;;;;;;;5.95;3.75;;;17.50;99.90;;;;;;5058238;28;20021;-77
2021/08/23 00:31:53;;;;;;;5.65;3.65;;;17.40;99.90;;;;;;5076199;28;20017;-76
2021/08/23 00:34:19;;;;;;;4.75;3.10;;;17.40;99.90;;;;;;5058101;28;20069;-76
2021/08/23 00:36:44;;;;;;;5.28;3.63;;;17.40;99.90;;;;;;5058310;28;20064;-76
2021/08/23 00:39:11;;;;;;;7.70;4.30;;;17.40;99.90;;;;;;5076318;28;20060;-77
2021/08/23 00:41:38;;;;;;;7.63;3.90;;;17.40;99.90;;;;;;5076410;28;20021;-75
2021/08/23 00:44:04;;;;;;;5.90;3.60;;;17.40;99.90;;;;;;5075992;28;20054;-75
2021/08/23 00:46:32;;;;;;;7.35;3.75;;;17.40;99.90;;;;;;5058191;28;20027;-77
2021/08/23 00:48:57;;;;;;;6.00;3.72;;;17.40;99.90;;;;;;5075986;28;20486;-77
2021/08/23 00:51:23;;;;;;;7.15;4.38;;;17.40;99.90;;;;;;5075898;28;20044;-77
2021/08/23 00:53:50;;;;;;;9.23;4.80;;;17.40;99.90;;;;;;5075638;28;20025;-77
2021/08/23 00:56:17;;;;;;;7.55;4.63;;;17.40;99.90;;;;;;5075984;28;20025;-77
2021/08/23 00:58:42;;;;;;;9.70;4.97;;;17.40;99.90;;;;;;5057845;28;20111;-77
2021/08/23 01:01:17;;;;;;;7.72;4.97;;;17.40;99.90;;;;;;5057686;28;20540;-77
2021/08/23 01:04:07;;;;;;;8.57;4.45;;;17.40;99.90;;;;;;5075723;28;20029;-77
2021/08/23 01:06:33;;;;;;;10.25;4.93;;;17.40;99.90;;;;;;5057592;28;20016;-77
2021/08/23 01:09:07;;;;;;;6.80;4.43;;;17.40;99.90;;;;;;5075616;28;20524;-77
2021/08/23 01:11:41;;;;;;;9.13;5.03;;;17.40;99.90;;;;;;5057584;28;20023;-77
2021/08/23 01:14:07;;;;;;;8.82;5.13;;;17.50;99.90;;;;;;5057273;28;20016;-77
2021/08/23 01:16:33;;;;;;;14.25;6.95;;;17.40;99.90;;;;;;5075390;28;20497;-77
2021/08/23 01:18:59;;;;;;;11.27;5.38;;;17.40;99.90;;;;;;5057959;28;20028;-75
2021/08/23 01:21:28;;;;;;;10.13;5.53;;;17.40;99.90;;;;;;5057202;28;20020;-75
2021/08/23 01:23:55;;;;;;;8.60;5.32;;;17.40;99.90;;;;;;5075142;28;20101;-77
2021/08/23 01:26:31;;;;;;;10.68;5.68;;;17.40;99.90;;;;;;5075078;28;20107;-76
2021/08/23 01:29:29;;;;;;;15.27;6.80;;;17.40;99.90;;;;;;5057734;28;20032;-77
2021/08/23 01:32:00;;;;;;;12.45;6.95;;;17.40;99.90;;;;;;5003199;28;20028;-75
2021/08/23 01:34:26;;;;;;;13.18;6.68;;;17.40;99.90;;;;;;5056287;28;20537;-75
2021/08/23 01:36:52;;;;;;;11.55;6.60;;;17.30;99.90;;;;;;5057013;28;20012;-75
2021/08/23 01:39:21;;;;;;;14.82;7.30;;;17.30;99.90;;;;;;5056978;28;20028;-75
2021/08/23 01:41:48;;;;;;;13.52;7.28;;;17.30;99.90;;;;;;5075102;28;20028;-77
2021/08/23 01:44:13;;;;;;;14.70;7.90;;;17.20;99.90;;;;;;5074810;28;20028;-77
2021/08/23 01:46:39;;;;;;;14.07;8.02;;;17.20;99.90;;;;;;5056706;28;20052;-77
2021/08/23 01:49:07;;;;;;;12.75;7.55;;;17.30;99.90;;;;;;5074948;28;20032;-77
2021/08/23 01:51:33;;;;;;;17.50;7.35;;;17.20;99.90;;;;;;5056810;28;20024;-77
2021/08/23 01:53:58;;;;;;;13.93;6.97;;;17.20;99.90;;;;;;5074807;28;20020;-77
2021/08/23 01:56:24;;;;;;;14.95;7.38;;;17.20;99.90;;;;;;5074964;28;20063;-77
2021/08/23 01:58:50;;;;;;;17.90;8.07;;;17.20;99.90;;;;;;5074751;28;20024;-77
2021/08/23 02:01:16;;;;;;;15.85;8.30;;;17.10;99.90;;;;;;5056402;28;20401;-75
2021/08/23 02:03:42;;;;;;;18.67;8.52;;;17.10;99.90;;;;;;5056566;28;20474;-77
2021/08/23 02:06:08;;;;;;;18.70;8.15;;;17.10;99.90;;;;;;5074908;28;20031;-77
2021/08/23 02:08:33;;;;;;;14.32;7.75;;;17.10;99.90;;;;;;5056965;28;20025;-77
2021/08/23 02:10:59;;;;;;;14.80;7.68;;;17.10;99.90;;;;;;5074873;28;20104;-75
2021/08/23 02:13:24;;;;;;;19.70;9.27;;;17.00;99.90;;;;;;5074926;28;20401;-76
2021/08/23 02:15:50;;;;;;;17.55;8.40;;;17.10;99.90;;;;;;5074427;28;20037;-77
2021/08/23 02:18:15;;;;;;;17.40;7.78;;;17.20;99.90;;;;;;5056682;28;20016;-75
2021/08/23 02:20:41;;;;;;;19.13;8.90;;;17.00;99.90;;;;;;5056455;28;20363;-77
2021/08/23 02:23:06;;;;;;;19.33;9.77;;;17.00;99.90;;;;;;5056310;28;20028;-77
2021/08/23 02:25:32;;;;;;;21.67;9.80;;;17.00;99.90;;;;;;5056338;28;20020;-75
2021/08/23 02:27:58;;;;;;;19.40;9.30;;;17.00;99.90;;;;;;5074147;28;20466;-78
2021/08/23 02:30:23;;;;;;;18.52;9.50;;;16.90;99.90;;;;;;5074142;28;20032;-75
2021/08/23 02:32:49;;;;;;;25.05;10.05;;;17.00;99.90;;;;;;5056396;28;20024;-75
2021/08/23 02:35:16;;;;;;;28.15;10.27;;;16.90;99.90;;;;;;5074081;28;20021;-77
2021/08/23 02:37:41;;;;;;;21.40;9.18;;;16.90;99.90;;;;;;5073789;28;20389;-75
2021/08/23 02:40:08;;;;;;;25.65;10.60;;;16.80;99.90;;;;;;5074081;28;20028;-75
2021/08/23 02:42:33;;;;;;;23.08;10.30;;;16.80;99.90;;;;;;5055738;28;20024;-76
2021/08/23 02:44:59;;;;;;;26.50;10.70;;;16.80;99.90;;;;;;5073720;28;20386;-77
2021/08/23 02:47:24;;;;;;;20.00;10.13;;;16.80;99.90;;;;;;5055919;28;20056;-76
2021/08/23 02:49:50;;;;;;;22.00;9.00;;;16.80;99.90;;;;;;5073937;28;20073;-78
2021/08/23 02:52:16;;;;;;;21.60;9.30;;;16.70;99.90;;;;;;5074437;28;20016;-78
2021/08/23 02:54:41;;;;;;;21.02;9.73;;;16.70;99.90;;;;;;5056869;28;20085;-75
2021/08/23 02:57:06;;;;;;;21.42;9.98;;;16.70;99.90;;;;;;5074269;28;20020;-77
2021/08/23 02:59:32;;;;;;;22.58;8.95;;;16.70;99.90;;;;;;5064026;23;20036;-76
2021/08/23 03:01:58;;;;;;;19.63;8.35;;;16.70;99.90;;;;;;5035648;28;20467;-76
2021/08/23 03:04:23;;;;;;;18.20;7.97;;;16.70;99.90;;;;;;5035640;28;20017;-77
2021/08/23 03:06:49;;;;;;;17.77;8.93;;;16.60;99.90;;;;;;5049541;28;20033;-75
2021/08/23 03:09:14;;;;;;;17.40;8.55;;;16.60;99.90;;;;;;5043846;28;20021;-75
2021/08/23 03:11:40;;;;;;;17.23;8.80;;;16.50;99.90;;;;;;5044105;28;20021;-75
2021/08/23 03:14:06;;;;;;;15.30;8.15;;;16.50;99.90;;;;;;5042230;28;20174;-75
2021/08/23 03:16:35;;;;;;;16.92;7.28;;;16.50;99.90;;;;;;5044935;28;20017;-74
2021/08/23 03:19:00;;;;;;;16.73;7.53;;;16.50;99.90;;;;;;5058558;28;20036;-77
2021/08/23 03:21:26;;;;;;;13.68;6.97;;;16.50;99.90;;;;;;5053253;28;20029;-74
2021/08/23 03:23:52;;;;;;;13.88;7.28;;;16.40;99.90;;;;;;5035225;28;20024;-76
2021/08/23 03:26:18;;;;;;;14.48;6.93;;;16.50;99.90;;;;;;5058211;28;20021;-74
2021/08/23 03:28:44;;;;;;;12.65;6.85;;;16.50;99.90;;;;;;5046101;28;20021;-75
2021/08/23 03:31:10;;;;;;;12.77;6.15;;;16.40;99.90;;;;;;5042809;28;20048;-75
2021/08/23 03:33:39;;;;;;;13.13;6.45;;;16.30;99.90;;;;;;5063634;28;20021;-76
2021/08/23 03:36:05;;;;;;;13.48;6.72;;;16.40;99.90;;;;;;5044522;28;20112;-77
2021/08/23 03:38:33;;;;;;;13.98;6.03;;;16.40;99.90;;;;;;5044626;28;20029;-76
2021/08/23 03:40:58;;;;;;;13.93;6.57;;;16.30;99.90;;;;;;5047398;28;20029;-76
2021/08/23 03:43:24;;;;;;;14.80;5.53;;;16.30;99.90;;;;;;5044631;28;20027;-77
2021/08/23 03:45:50;;;;;;;11.45;5.88;;;16.30;99.90;;;;;;5045735;28;20479;-77
2021/08/23 03:48:15;;;;;;;12.68;5.82;;;16.30;99.90;;;;;;5060798;28;20112;-77
2021/08/23 03:50:41;;;;;;;13.90;6.13;;;16.30;99.90;;;;;;5060405;28;20032;-76
2021/08/23 03:53:06;;;;;;;14.30;6.20;;;16.30;99.90;;;;;;5061062;28;20083;-77
2021/08/23 03:55:32;;;;;;;11.38;6.28;;;16.30;99.90;;;;;;5042543;28;20033;-77
2021/08/23 03:57:58;;;;;;;12.80;6.32;;;16.30;99.90;;;;;;5068284;28;20033;-77
2021/08/23 04:00:24;;;;;;;15.93;5.82;;;16.30;99.90;;;;;;5046998;28;20036;-77
2021/08/23 04:02:49;;;;;;;11.38;5.75;;;16.30;99.90;;;;;;5043900;28;20060;-78
2021/08/23 04:05:15;;;;;;;11.40;5.28;;;16.30;99.90;;;;;;5057128;28;20502;-77
2021/08/23 04:07:41;;;;;;;14.57;6.13;;;16.30;99.90;;;;;;5057358;28;20108;-77
2021/08/23 04:10:07;;;;;;;10.60;5.18;;;16.30;99.90;;;;;;5038968;28;20491;-75
2021/08/23 04:12:33;;;;;;;10.68;5.20;;;16.30;99.90;;;;;;5057549;28;20017;-76
2021/08/23 04:15:02;;;;;;;11.75;5.82;;;16.30;99.90;;;;;;5038829;28;20014;-75
2021/08/23 04:17:27;;;;;;;12.57;6.28;;;16.30;99.90;;;;;;5038718;28;20032;-76
2021/08/23 04:19:53;;;;;;;13.45;4.88;;;16.20;99.90;;;;;;5056834;28;20021;-75
2021/08/23 04:22:18;;;;;;;13.55;5.18;;;16.30;99.90;;;;;;5038527;28;20021;-77
2021/08/23 04:24:44;;;;;;;10.95;5.15;;;16.30;99.90;;;;;;5038756;28;20386;-77
2021/08/23 04:27:09;;;;;;;12.20;4.70;;;16.30;99.90;;;;;;5074041;22;21735;-77
2021/08/23 04:29:35;;;;;;;10.05;4.53;;;16.30;99.90;;;;;;5097177;28;20031;-75
2021/08/23 04:32:00;;;;;;;9.23;5.03;;;16.30;99.90;;;;;;5096836;28;20423;-77
2021/08/23 04:34:26;;;;;;;9.98;3.92;;;16.20;99.90;;;;;;5096598;28;20480;-75
2021/08/23 04:36:52;;;;;;;11.25;4.45;;;16.20;99.90;;;;;;5096475;28;20028;-77
2021/08/23 04:39:17;;;;;;;10.00;5.72;;;16.20;99.90;;;;;;5096648;28;20032;-75
2021/08/23 04:41:43;;;;;;;8.52;3.63;;;16.20;99.90;;;;;;5108751;22;20040;-76
2021/08/23 04:44:09;;;;;;;10.32;4.05;;;16.20;99.90;;;;;;5078403;28;20500;-78
2021/08/23 04:46:36;;;;;;;9.18;4.18;;;16.20;99.90;;;;;;5097321;28;20080;-76
2021/08/23 04:49:02;;;;;;;6.65;3.33;;;16.20;99.90;;;;;;5096789;28;20016;-77
2021/08/23 04:51:27;;;;;;;6.38;3.38;;;16.20;99.90;;;;;;5078697;28;20543;-77
2021/08/23 04:53:53;;;;;;;6.13;2.50;;;16.20;99.90;;;;;;5096783;28;20020;-75
2021/08/23 04:56:19;;;;;;;7.63;2.30;;;16.20;99.90;;;;;;5096082;28;20116;-75
2021/08/23 04:58:45;;;;;;;7.88;2.80;;;16.20;99.90;;;;;;5077895;28;20485;-76
2021/08/23 05:01:11;;;;;;;6.45;2.03;;;16.20;99.90;;;;;;5096388;28;20106;-77
2021/08/23 05:03:37;;;;;;;7.05;2.92;;;16.20;99.90;;;;;;5096249;28;20031;-76
2021/08/23 05:06:03;;;;;;;6.22;2.20;;;16.20;99.90;;;;;;5078287;28;20020;-77
2021/08/23 05:08:28;;;;;;;6.32;1.73;;;16.20;99.90;;;;;;5076932;28;20107;-76
2021/08/23 05:13:22;;;;;;;11.98;2.08;;;16.20;99.90;;;;;;5094378;28;20056;-75
2021/08/23 05:15:49;;;;;;;4.55;1.75;;;19.70;99.90;;;;;;5089518;22;20016;-75
2021/08/23 05:18:14;;;;;;;7.50;1.90;;;16.20;99.90;;;;;;5095932;28;20504;-75
2021/08/23 05:20:40;;;;;;;7.28;1.85;;;16.20;99.90;;;;;;5077515;28;20012;-77
2021/08/23 05:23:05;;;;;;;3.67;1.60;;;16.30;99.90;;;;;;5077561;28;20358;-75
2021/08/23 05:25:34;;;;;;;5.93;2.15;;;16.30;99.90;;;;;;5096545;28;20032;-80
2021/08/23 05:28:06;;;;;;;7.38;2.08;;;16.30;99.90;;;;;;5096234;28;20416;-77
2021/08/23 05:30:33;;;;;;;9.40;1.95;;;16.30;99.90;;;;;;5095446;28;20021;-76
2021/08/23 05:32:58;;;;;;;9.18;2.08;;;16.30;99.90;;;;;;5077649;28;20114;-78
2021/08/23 05:35:24;;;;;;;7.38;1.33;;;16.30;99.90;;;;;;5095474;28;20056;-76
2021/08/23 05:37:49;;;;;;;2.92;1.40;;;16.30;99.90;;;;;;5095012;28;20489;-75
2021/08/23 05:40:17;;;;;;;8.52;1.80;;;16.30;99.90;;;;;;5094899;28;20394;-75
2021/08/23 05:42:43;;;;;;;5.30;1.52;;;16.30;99.90;;;;;;5076806;28;20036;-75
2021/08/23 05:45:09;;;;;;;5.93;1.27;;;16.40;99.90;;;;;;5094541;28;20039;-75
2021/08/23 05:47:37;;;;;;;6.97;1.33;;;16.40;99.90;;;;;;5095176;28;20020;-77
2021/08/23 05:50:03;;;;;;;7.00;0.80;;;16.40;99.90;;;;;;5094774;28;20473;-75
2021/08/23 05:52:28;;;;;;;9.82;2.22;;;16.50;99.90;;;;;;5094224;28;20020;-75
2021/08/23 05:54:54;;;;;;;4.60;1.23;;;16.60;99.90;;;;;;5093415;28;20066;-75
2021/08/23 05:57:21;;;;;;;9.95;1.27;;;16.70;99.90;;;;;;5095073;28;20078;-75
2021/08/23 05:59:46;;;;;;;4.78;0.80;;;16.70;99.90;;;;;;5076632;28;20024;-75
2021/08/23 06:02:12;;;;;;;5.20;0.80;;;16.80;99.90;;;;;;5076349;28;20028;-75
2021/08/23 06:04:37;;;;;;;5.50;1.50;;;16.90;99.90;;;;;;5095133;28;20028;-75
2021/08/23 06:07:05;;;;;;;1.92;0.60;;;16.90;99.90;;;;;;5076434;28;20032;-75
2021/08/23 06:09:31;;;;;;;3.28;0.82;;;17.00;99.90;;;;;;5094682;28;20091;-75
2021/08/23 06:11:57;;;;;;;3.25;0.70;;;17.00;99.90;;;;;;5076412;28;20050;-75
2021/08/23 06:14:22;;;;;;;2.60;0.40;;;17.00;99.90;;;;;;5094458;28;20013;-75
2021/08/23 06:16:48;;;;;;;5.93;0.43;;;17.10;99.90;;;;;;5094247;28;20441;-77
2021/08/23 06:19:13;;;;;;;3.65;0.65;;;17.10;99.90;;;;;;5098258;28;20016;-75
2021/08/23 06:21:40;;;;;;;2.35;1.20;;;17.10;99.90;;;;;;5081300;28;20039;-75
2021/08/23 06:24:06;;;;;;;5.68;0.80;;;17.10;99.90;;;;;;5100055;28;20099;-75
2021/08/23 06:26:32;;;;;;;1.65;0.50;;;17.20;99.90;;;;;;5082545;28;20058;-74
2021/08/23 06:28:57;;;;;;;3.17;0.50;;;17.20;99.90;;;;;;5081356;28;20020;-74
2021/08/23 06:31:23;;;;;;;3.50;0.20;;;17.20;99.90;;;;;;5080907;28;20020;-75
2021/08/23 06:33:49;;;;;;;3.45;0.40;;;17.20;99.90;;;;;;5080203;28;20481;-75
2021/08/23 06:36:15;;;;;;;4.57;0.43;;;17.20;99.90;;;;;;5081128;28;20024;-75
2021/08/23 06:38:41;;;;;;;3.60;0.32;;;17.30;99.90;;;;;;5098495;28;20081;-75
2021/08/23 06:41:06;;;;;;;2.00;0.40;;;17.30;99.90;;;;;;5079873;28;20035;-75
2021/08/23 06:43:32;;;;;;;2.60;0.68;;;17.30;99.90;;;;;;5093996;28;20047;-75
2021/08/23 06:45:57;;;;;;;2.10;0.60;;;17.30;99.90;;;;;;5094566;28;20036;-76
2021/08/23 06:48:23;;;;;;;2.92;0.45;;;17.30;99.90;;;;;;5076134;28;20032;-76
2021/08/23 06:50:48;;;;;;;1.60;0.03;;;17.30;99.90;;;;;;5135915;22;20117;-75
2021/08/23 06:53:14;;;;;;;5.10;0.20;;;17.30;99.90;;;;;;5076210;28;20054;-78
2021/08/23 06:55:40;;;;;;;2.63;0.30;;;17.30;99.90;;;;;;5094648;28;20031;-76
2021/08/23 06:58:05;;;;;;;5.03;0.65;;;17.40;99.90;;;;;;5075896;28;20028;-77
2021/08/23 07:00:31;;;;;;;3.65;0.15;;;17.50;99.90;;;;;;5110033;22;20027;-79
2021/08/23 07:02:56;;;;;;;2.40;0.20;;;20.90;99.90;;;;;;5091245;28;20035;-75
2021/08/23 07:05:25;;;;;;;1.83;0.15;;;17.60;99.90;;;;;;5094071;28;20048;-76
2021/08/23 07:07:50;;;;;;;1.92;0.13;;;17.70;99.90;;;;;;5093802;28;20422;-75
2021/08/23 07:10:16;;;;;;;2.63;0.30;;;17.70;99.90;;;;;;5094236;28;20015;-76
2021/08/23 07:12:42;;;;;;;6.20;0.10;;;17.80;99.90;;;;;;5093813;28;20013;-77
2021/08/23 07:15:09;;;;;;;0.93;0.20;;;17.90;99.90;;;;;;5094367;28;20505;-76
2021/08/23 07:17:35;;;;;;;4.45;0.10;;;18.00;99.90;;;;;;5094624;28;20020;-75
2021/08/23 07:20:02;;;;;;;3.50;0.20;;;18.10;99.90;;;;;;5093766;28;20027;-76
2021/08/23 07:22:27;;;;;;;0.77;0.00;;;18.20;99.90;;;;;;5075931;28;20035;-75
2021/08/23 07:24:53;;;;;;;4.90;0.10;;;18.30;99.90;;;;;;5094508;28;20032;-76
2021/08/23 07:27:19;;;;;;;0.38;0.15;;;18.30;99.90;;;;;;5075502;28;20043;-77
2021/08/23 07:29:45;;;;;;;0.80;0.10;;;18.30;99.90;;;;;;5093440;28;20027;-77
2021/08/23 07:32:11;;;;;;;5.40;0.15;;;18.30;99.90;;;;;;5074817;28;20541;-75
2021/08/23 07:34:37;;;;;;;1.70;0.08;;;18.30;99.90;;;;;;5093373;28;20066;-76
2021/08/23 07:37:03;;;;;;;4.20;0.40;;;18.40;99.90;;;;;;5093782;28;20516;-75
2021/08/23 07:39:29;;;;;;;5.88;0.10;;;18.40;99.90;;;;;;5093942;28;20024;-77
2021/08/23 07:41:54;;;;;;;0.70;0.13;;;18.40;99.90;;;;;;5093493;28;20085;-75
2021/08/23 07:44:20;;;;;;;2.05;0.00;;;18.50;99.90;;;;;;5093720;28;20543;-76
2021/08/23 07:46:46;;;;;;;1.90;0.10;;;18.50;99.90;;;;;;5094082;28;20016;-75
2021/08/23 07:49:11;;;;;;;3.08;0.38;;;18.90;99.90;;;;;;5075355;28;20016;-74
2021/08/23 07:51:37;;;;;;;0.73;0.00;;;18.60;99.90;;;;;;5093573;28;20036;-75
2021/08/23 07:54:02;;;;;;;1.42;0.20;;;18.70;99.90;;;;;;5093536;28;20066;-77
2021/08/23 07:56:29;;;;;;;2.50;0.00;;;18.70;99.90;;;;;;5076189;28;20052;-75
2021/08/23 07:58:56;;;;;;;4.10;0.30;;;18.70;99.90;;;;;;5075686;28;20048;-77
2021/08/23 08:01:22;;;;;;;1.05;0.00;;;18.80;99.90;;;;;;5074983;28;20499;-75
2021/08/23 08:03:48;;;;;;;0.65;0.10;;;18.90;99.90;;;;;;5093046;28;20013;-75
2021/08/23 08:06:14;;;;;;;0.45;0.20;;;18.90;99.90;;;;;;5075013;28;20073;-77
2021/08/23 08:08:39;;;;;;;3.15;0.08;;;19.00;99.90;;;;;;5075211;28;20493;-77
2021/08/23 08:11:05;;;;;;;1.77;0.00;;;18.90;99.90;;;;;;5075127;28;20009;-76
2021/08/23 08:13:30;;;;;;;1.33;0.10;;;18.90;99.90;;;;;;5093602;28;20032;-75
2021/08/23 08:15:56;;;;;;;2.45;0.00;;;19.00;99.90;;;;;;5093661;28;20603;-77
2021/08/23 08:18:21;;;;;;;2.50;0.30;;;19.10;99.90;;;;;;5076206;28;20016;-79
2021/08/23 08:20:47;;;;;;;0.82;0.03;;;19.30;99.90;;;;;;5093353;28;20027;-74
2021/08/23 08:23:13;;;;;;;4.78;0.32;;;19.50;99.90;;;;;;5074761;28;20031;-76
2021/08/23 08:25:38;;;;;;;2.80;0.20;;;19.70;99.90;;;;;;5093214;28;20381;-77
2021/08/23 08:28:05;;;;;;;3.22;0.00;;;19.80;99.90;;;;;;5093081;28;20032;-74
2021/08/23 08:30:31;;;;;;;1.55;0.30;;;19.90;99.90;;;;;;5093170;28;20149;-76
2021/08/23 08:32:57;;;;;;;2.30;0.00;;;20.00;99.90;;;;;;5093972;28;20079;-78
2021/08/23 08:35:23;;;;;;;1.23;0.00;;;20.10;99.90;;;;;;5093374;28;20089;-76
2021/08/23 08:37:49;;;;;;;2.08;0.20;;;20.40;99.90;;;;;;5093969;28;20035;-78
2021/08/23 08:40:15;;;;;;;1.85;0.20;;;20.60;99.90;;;;;;5075293;28;20020;-78
2021/08/23 08:42:41;;;;;;;1.55;0.13;;;20.90;99.90;;;;;;5095264;28;20093;-77
2021/08/23 08:45:07;;;;;;;3.63;0.32;;;21.10;99.90;;;;;;5078860;28;20547;-78
2021/08/23 08:47:37;;;;;;;1.65;0.10;;;21.40;99.90;;;;;;5097230;28;20059;-78
2021/08/23 08:50:04;;;;;;;0.28;0.00;;;21.60;99.90;;;;;;5097010;28;20489;-78
2021/08/23 08:52:31;;;;;;;2.83;0.47;;;21.80;99.90;;;;;;5078729;28;20539;-78
2021/08/23 08:54:57;;;;;;;5.00;0.55;;;21.90;99.90;;;;;;5079159;28;20016;-78
2021/08/23 08:57:22;;;;;;;1.73;0.25;;;22.10;99.90;;;;;;5078479;28;20020;-78
2021/08/23 08:59:48;;;;;;;0.30;0.00;;;22.20;99.90;;;;;;5078809;28;20020;-77
2021/08/23 09:02:14;;;;;;;2.88;0.03;;;22.30;99.90;;;;;;5078640;28;20052;-77
2021/08/23 09:04:39;;;;;;;2.65;0.00;;;22.30;99.90;;;;;;5078489;28;20054;-78
2021/08/23 09:07:07;;;;;;;0.00;0.00;;;22.30;99.90;;;;;;5096477;28;20132;-78
2021/08/23 09:09:33;;;;;;;2.42;0.20;;;22.40;99.90;;;;;;5078532;28;20394;-78
2021/08/23 09:12:02;;;;;;;3.40;0.00;;;22.40;99.90;;;;;;5078457;28;20153;-78
2021/08/23 09:14:29;;;;;;;0.57;0.10;;;22.30;99.90;;;;;;5096631;28;20024;-78
2021/08/23 09:17:09;;;;;;;0.95;0.25;;;22.10;99.90;;;;;;5078237;28;20028;-78
2021/08/23 09:19:37;;;;;;;0.63;0.00;;;22.10;99.90;;;;;;5078411;28;20028;-76
2021/08/23 09:22:04;;;;;;;1.55;0.50;;;22.20;99.90;;;;;;5095656;28;20492;-76
2021/08/23 09:24:32;;;;;;;0.97;0.10;;;22.20;99.90;;;;;;5095549;28;20438;-76
2021/08/23 09:27:03;;;;;;;1.48;0.00;;;22.30;99.90;;;;;;5095514;28;20016;-76
2021/08/23 09:29:28;;;;;;;5.13;0.10;;;22.30;99.90;;;;;;5095787;28;20408;-76
2021/08/23 09:31:59;;;;;;;1.92;0.30;;;22.20;99.90;;;;;;5095400;28;20074;-76
2021/08/23 09:34:25;;;;;;;0.38;0.00;;;22.10;99.90;;;;;;5077122;28;20027;-76
2021/08/23 09:36:58;;;;;;;1.25;0.00;;;22.00;99.90;;;;;;5077850;28;20107;-77
2021/08/23 09:39:28;;;;;;;0.52;0.00;;;21.90;99.90;;;;;;5096280;28;20409;-76
2021/08/23 09:42:05;;;;;;;2.03;0.13;;;21.90;99.90;;;;;;5077026;28;20020;-76
2021/08/23 09:44:38;;;;;;;0.55;0.00;;;21.90;99.90;;;;;;5077026;28;20504;-76
2021/08/23 09:47:07;;;;;;;0.47;0.00;;;21.80;99.90;;;;;;5095277;28;20020;-76
2021/08/23 09:49:51;;;;;;;3.13;0.30;;;21.80;99.90;;;;;;5076827;28;20036;-76
2021/08/23 09:52:31;;;;;;;0.55;0.00;;;21.90;99.90;;;;;;5095223;28;20034;-76
2021/08/23 09:55:06;;;;;;;0.77;0.00;;;21.90;99.90;;;;;;5088197;23;20052;-76
2021/08/23 09:57:36;;;;;;;2.92;0.00;;;21.80;99.90;;;;;;5095517;28;20103;-75
2021/08/23 10:00:07;;;;;;;0.20;0.00;;;21.70;99.90;;;;;;5095714;28;20410;-78
2021/08/23 10:02:34;;;;;;;0.77;0.10;;;21.60;99.90;;;;;;5095103;28;20024;-75
2021/08/23 10:05:00;;;;;;;1.48;0.22;;;21.50;99.90;;;;;;5076889;28;20077;-77
2021/08/23 10:07:28;;;;;;;0.63;0.00;;;21.20;99.90;;;;;;5094765;28;20048;-77
2021/08/23 10:10:00;;;;;;;3.28;0.17;;;21.10;99.90;;;;;;5076813;28;20039;-76
2021/08/23 10:12:31;;;;;;;0.73;0.00;;;21.20;99.90;;;;;;5091824;28;20134;-75
2021/08/23 10:14:56;;;;;;;1.35;0.00;;;21.50;99.90;;;;;;5094772;28;20020;-77
2021/08/23 10:17:22;;;;;;;1.38;0.10;;;21.90;99.90;;;;;;5095285;28;20031;-77
2021/08/23 10:19:49;;;;;;;0.93;0.00;;;22.20;99.90;;;;;;5094770;28;20481;-76
2021/08/23 10:22:15;;;;;;;0.80;0.00;;;22.30;99.90;;;;;;5094477;28;20025;-76
2021/08/23 10:24:41;;;;;;;0.82;0.35;;;22.40;99.90;;;;;;5094694;28;20091;-76
2021/08/23 10:27:06;;;;;;;2.00;0.20;;;22.80;99.90;;;;;;5095154;28;20032;-75
2021/08/23 10:29:40;;;;;;;0.95;0.00;;;22.70;99.90;;;;;;5076264;28;20058;-78
2021/08/23 10:32:08;;;;;;;2.83;0.00;;;22.90;99.90;;;;;;5094526;28;20378;-75
2021/08/23 10:34:34;;;;;;;0.73;0.10;;;23.70;99.90;;;;;;5088681;22;20397;-75
2021/08/23 10:37:00;;;;;;;1.38;0.22;;;23.10;99.90;;;;;;5076058;28;20038;-76
2021/08/23 10:39:27;;;;;;;4.13;0.10;;;23.10;99.90;;;;;;5087757;23;20520;-76
2021/08/23 10:41:55;;;;;;;0.15;0.10;;;23.10;99.90;;;;;;5076029;28;20020;-75
2021/08/23 10:44:30;;;;;;;4.45;0.00;;;23.20;99.90;;;;;;5076293;28;20020;-75
2021/08/23 10:47:10;;;;;;;0.63;0.05;;;23.20;99.90;;;;;;5094144;28;20058;-74
2021/08/23 10:49:44;;;;;;;1.73;0.10;;;23.00;99.90;;;;;;5093886;28;20024;-76
2021/08/23 10:52:11;;;;;;;1.73;0.00;;;23.00;99.90;;;;;;5075688;28;20073;-76
2021/08/23 10:54:43;;;;;;;0.35;0.00;;;23.00;99.90;;;;;;5093753;28;20073;-76
2021/08/23 10:57:13;;;;;;;1.13;0.20;;;23.10;99.90;;;;;;5094072;28;20106;-76
2021/08/23 10:59:43;;;;;;;1.02;0.15;;;23.40;99.90;;;;;;5094119;28;20077;-76
2021/08/23 11:02:30;;;;;;;7.22;0.17;;;23.70;99.90;;;;;;5076261;28;20020;-76
2021/08/23 11:05:20;;;;;;;2.65;0.00;;;23.90;99.90;;;;;;5093252;28;20535;-75
2021/08/23 11:07:59;;;;;;;2.00;0.00;;;23.60;99.90;;;;;;5094068;28;20028;-75
2021/08/23 11:10:26;;;;;;;0.88;0.00;;;23.80;99.90;;;;;;5093640;28;20414;-75
2021/08/23 11:12:57;;;;;;;1.27;0.25;;;23.80;99.90;;;;;;5092743;28;20016;-75
2021/08/23 11:15:31;;;;;;;0.30;0.00;;;23.60;99.90;;;;;;5093267;28;20058;-75
2021/08/23 11:18:01;;;;;;;1.35;0.20;;;23.50;99.90;;;;;;5094019;28;20042;-75
2021/08/23 11:20:29;;;;;;;3.30;0.00;;;23.50;99.90;;;;;;5093875;28;20469;-75
2021/08/23 11:22:57;;;;;;;1.00;0.00;;;23.50;99.90;;;;;;5093312;28;20077;-75
2021/08/23 11:25:49;;;;;;;0.80;0.00;;;23.20;99.90;;;;;;5093277;28;20031;-76
2021/08/23 11:28:29;;;;;;;1.75;0.00;;;23.50;99.90;;;;;;5089339;28;20482;-76
2021/08/23 11:30:55;;;;;;;4.00;0.20;;;23.90;99.90;;;;;;5092243;28;20055;-77
2021/08/23 11:33:34;;;;;;;2.70;0.10;;;24.30;99.90;;;;;;5075539;28;20128;-77
2021/08/23 11:36:01;;;;;;;2.38;0.00;;;24.10;99.90;;;;;;5093745;28;20027;-77
2021/08/23 11:38:32;;;;;;;3.10;0.08;;;24.30;99.90;;;;;;5094405;28;20137;-75
2021/08/23 11:40:58;;;;;;;1.98;0.32;;;24.40;99.90;;;;;;5079051;28;20119;-75
2021/08/23 11:43:28;;;;;;;0.75;0.00;;;24.70;99.90;;;;;;5096970;28;20020;-75
2021/08/23 11:45:55;;;;;;;2.30;0.00;;;25.00;98.70;;;;;;5096811;28;20028;-75
2021/08/23 11:48:21;;;;;;;3.58;0.00;;;24.90;99.90;;;;;;5078778;28;20024;-77
2021/08/23 11:50:46;;;;;;;2.92;0.40;;;24.80;99.90;;;;;;5097107;28;20027;-77
2021/08/23 11:53:13;;;;;;;1.55;0.00;;;24.40;99.90;;;;;;5096486;28;20024;-77
2021/08/23 11:55:44;;;;;;;3.83;0.10;;;24.10;99.90;;;;;;5079136;28;20418;-77
2021/08/23 11:58:15;;;;;;;2.15;0.08;;;24.00;99.90;;;;;;5077040;28;20024;-77
2021/08/23 12:00:43;;;;;;;0.60;0.10;;;24.30;99.90;;;;;;5076825;28;20094;-77
2021/08/23 12:03:11;;;;;;;0.88;0.00;;;24.30;99.90;;;;;;5076772;28;20028;-77
2021/08/23 12:05:42;;;;;;;0.85;0.00;;;24.60;99.90;;;;;;5084765;28;20054;-77
2021/08/23 12:08:20;;;;;;;2.03;0.10;;;24.80;99.90;;;;;;5088346;28;20462;-76
2021/08/23 12:11:00;;;;;;;1.90;0.00;;;24.50;99.90;;;;;;5059121;28;20024;-76
2021/08/23 12:13:34;;;;;;;3.85;0.15;;;24.90;99.90;;;;;;5092724;28;20035;-76
2021/08/23 12:16:06;;;;;;;1.85;0.00;;;25.10;97.20;;;;;;5097030;28;20028;-76
2021/08/23 12:18:38;;;;;;;0.77;0.00;;;25.00;99.90;;;;;;5084678;28;20436;-76
2021/08/23 12:21:12;;;;;;;1.52;0.00;;;24.80;98.70;;;;;;5100602;28;20021;-76
2021/08/23 12:23:56;;;;;;;1.05;0.08;;;24.80;99.20;;;;;;5100908;28;20105;-75
2021/08/23 12:26:30;;;;;;;0.47;0.00;;;24.90;98.90;;;;;;5100391;28;20385;-74
2021/08/23 12:29:18;;;;;;;0.30;0.00;;;24.90;99.90;;;;;;5100570;28;20502;-74
2021/08/23 12:31:48;;;;;;;0.93;0.10;;;24.80;99.90;;;;;;5064977;28;20161;-74
2021/08/23 12:34:15;;;;;;;1.17;0.00;;;24.70;99.50;;;;;;5082438;28;20269;-74
2021/08/23 12:36:42;;;;;;;0.77;0.00;;;24.40;99.40;;;;;;5100483;28;20024;-74
2021/08/23 12:39:08;;;;;;;1.13;0.40;;;24.70;99.30;;;;;;5082321;28;20028;-76
2021/08/23 12:41:34;;;;;;;1.98;0.10;;;24.90;99.10;;;;;;5100804;28;20025;-76
2021/08/23 12:44:00;;;;;;;2.83;0.00;;;24.80;99.50;;;;;;5101237;28;20536;-76
2021/08/23 12:46:26;;;;;;;2.30;0.00;;;24.50;99.90;;;;;;5100073;28;20032;-76
2021/08/23 12:48:52;;;;;;;2.53;0.00;;;24.40;99.90;;;;;;5081826;28;20021;-75